Аэропорт: Угольный. Анадырь

ICAO: UHMA

METAR:
2021-04-21 20:30:00
UHMA 212030Z 35003MPS CAVOK M11/M13 Q1034 R01/60D NOSIG RMK TDZ R01/35003G04MPS END R01/35003G04MPS QFE772/1029
METAR:
2021-04-21 16:44:00
TAF UHMA 211644Z 2118/2218 01003G08MPS 6000 NSC TEMPO 2118/2218 32005MPS 0400 FZFG SCT003